createdAt,value
2019-05-26T00:00:18.601Z,0
2019-05-26T00:01:32.786Z,0
2019-05-26T00:02:46.974Z,0
2019-05-26T00:04:01.178Z,0
2019-05-26T00:05:15.504Z,0
2019-05-26T00:06:29.651Z,0
2019-05-26T00:07:43.863Z,0
2019-05-26T00:08:58.107Z,0
2019-05-26T00:10:12.293Z,0
2019-05-26T00:11:26.489Z,0
2019-05-26T00:12:41.009Z,0
2019-05-26T00:13:54.862Z,0
2019-05-26T00:15:08.984Z,0
2019-05-26T00:16:23.186Z,0
2019-05-26T00:17:37.393Z,0
2019-05-26T00:18:51.594Z,0
2019-05-26T00:20:05.976Z,0
2019-05-26T00:21:20.068Z,0
2019-05-26T00:22:34.325Z,0
2019-05-26T00:25:04.895Z,0
2019-05-26T00:26:16.895Z,0
2019-05-26T00:27:33.857Z,0
2019-05-26T00:28:45.220Z,0
2019-05-26T00:29:59.410Z,0
2019-05-26T00:31:13.622Z,0
2019-05-26T00:32:27.813Z,0
2019-05-26T00:33:42.030Z,0
2019-05-26T00:36:10.656Z,0
2019-05-26T00:37:24.753Z,0
2019-05-26T00:38:38.863Z,0
2019-05-26T00:39:54.106Z,0
2019-05-26T00:41:07.297Z,0
2019-05-26T00:42:21.548Z,0
2019-05-26T00:43:35.752Z,0
2019-05-26T00:44:49.919Z,0
2019-05-26T00:47:18.294Z,0
2019-05-26T00:48:32.596Z,0
2019-05-26T00:49:46.799Z,0
2019-05-26T00:51:00.952Z,0
2019-05-26T00:52:15.096Z,0
2019-05-26T00:53:29.395Z,0
2019-05-26T00:54:43.507Z,0
2019-05-26T00:55:57.710Z,0
2019-05-26T00:57:12.034Z,0
2019-05-26T00:58:26.209Z,0
2019-05-26T00:59:40.358Z,0
2019-05-26T01:00:54.658Z,0
2019-05-26T01:02:08.861Z,0
2019-05-26T01:03:22.966Z,0
2019-05-26T01:04:37.222Z,0
2019-05-26T01:05:51.392Z,0
2019-05-26T01:07:05.703Z,0
2019-05-26T01:08:19.800Z,0
2019-05-26T01:09:34.105Z,0
2019-05-26T01:13:16.729Z,0
2019-05-26T01:14:30.859Z,0
2019-05-26T01:15:45.069Z,0
2019-05-26T01:16:59.298Z,0
2019-05-26T01:18:13.568Z,0
2019-05-26T01:19:27.695Z,0
2019-05-26T01:20:41.886Z,0
2019-05-26T01:21:56.314Z,0
2019-05-26T01:24:24.614Z,0
2019-05-26T01:25:38.915Z,0
2019-05-26T01:26:54.016Z,0
2019-05-26T01:28:07.444Z,0
2019-05-26T01:29:21.510Z,0
2019-05-26T01:30:35.588Z,0
2019-05-26T01:31:49.870Z,0
2019-05-26T01:33:04.008Z,0
2019-05-26T01:34:18.231Z,0
2019-05-26T01:36:46.736Z,0
2019-05-26T01:38:00.851Z,0
2019-05-26T01:39:15.063Z,0
2019-05-26T01:41:43.554Z,0
2019-05-26T01:42:57.680Z,0
2019-05-26T01:44:12.089Z,0
2019-05-26T01:45:26.161Z,0
2019-05-26T01:46:40.337Z,0
2019-05-26T01:47:54.524Z,0
2019-05-26T01:49:08.814Z,0
2019-05-26T01:50:22.956Z,0
2019-05-26T01:51:37.216Z,0
2019-05-26T01:52:51.358Z,0
2019-05-26T01:54:05.672Z,0
2019-05-26T01:55:19.772Z,0
2019-05-26T01:56:33.984Z,0
2019-05-26T01:59:02.394Z,0
2019-05-26T02:01:30.827Z,0
2019-05-26T02:02:45.035Z,0
2019-05-26T02:03:59.256Z,0
2019-05-26T02:05:13.513Z,0
2019-05-26T02:06:27.718Z,0
2019-05-26T02:07:41.849Z,0
2019-05-26T02:08:56.106Z,0
2019-05-26T02:10:10.274Z,0
2019-05-26T02:11:24.514Z,0
2019-05-26T02:13:52.889Z,0
2019-05-26T02:15:07.209Z,0
2019-05-26T02:16:21.308Z,0
2019-05-26T02:17:35.500Z,0
2019-05-26T02:18:49.714Z,0
2019-05-26T02:20:03.893Z,0
2019-05-26T02:21:18.094Z,0
2019-05-26T02:23:46.482Z,0
2019-05-26T02:25:00.765Z,0
2019-05-26T02:26:14.898Z,0
2019-05-26T02:27:29.076Z,0
2019-05-26T02:28:43.284Z,0
2019-05-26T02:29:57.593Z,0
2019-05-26T02:31:11.839Z,0
2019-05-26T02:32:25.890Z,0
2019-05-26T02:33:42.292Z,0
2019-05-26T02:34:54.316Z,0
2019-05-26T02:36:08.472Z,0
2019-05-26T02:38:36.894Z,0
2019-05-26T02:39:51.207Z,0
2019-05-26T02:41:05.337Z,4
2019-05-26T02:42:19.557Z,4
2019-05-26T02:43:33.733Z,4
2019-05-26T02:44:48.024Z,0
2019-05-26T02:46:02.218Z,4
2019-05-26T02:48:30.519Z,8
2019-05-26T02:49:44.838Z,8
2019-05-26T02:50:58.922Z,12
2019-05-26T02:52:13.137Z,12
2019-05-26T02:53:27.439Z,12
2019-05-26T02:54:41.620Z,12
2019-05-26T02:55:55.729Z,16
2019-05-26T02:57:09.928Z,20
2019-05-26T02:58:24.133Z,24
2019-05-26T03:00:52.568Z,32
2019-05-26T03:02:06.771Z,40
2019-05-26T03:03:21.163Z,44
2019-05-26T03:04:35.172Z,52
2019-05-26T03:05:49.454Z,60
2019-05-26T03:07:03.566Z,68
2019-05-26T03:08:17.773Z,80
2019-05-26T03:09:31.980Z,88
2019-05-26T03:10:46.208Z,100
2019-05-26T03:13:14.681Z,128
2019-05-26T03:15:43.129Z,160
2019-05-26T03:16:57.317Z,176
2019-05-26T03:18:11.400Z,200
2019-05-26T03:19:25.629Z,216
2019-05-26T03:21:54.053Z,264
2019-05-26T03:23:08.248Z,292
2019-05-26T03:24:22.507Z,320
2019-05-26T03:25:36.728Z,352
2019-05-26T03:26:50.933Z,388
2019-05-26T03:28:05.045Z,428
2019-05-26T03:29:19.261Z,480
2019-05-26T03:30:33.569Z,536
2019-05-26T03:31:47.690Z,604
2019-05-26T03:33:01.917Z,688
2019-05-26T03:34:16.209Z,776
2019-05-26T03:35:30.419Z,864
2019-05-26T03:37:58.708Z,1048
2019-05-26T03:39:12.920Z,1144
2019-05-26T03:40:27.201Z,1232
2019-05-26T03:41:41.448Z,1324
2019-05-26T03:42:55.569Z,1412
2019-05-26T03:44:09.755Z,1492
2019-05-26T03:45:23.983Z,1564
2019-05-26T03:46:38.185Z,1628
2019-05-26T03:47:52.421Z,1688
2019-05-26T03:49:06.635Z,1748
2019-05-26T03:50:20.777Z,1812
2019-05-26T03:51:34.985Z,1872
2019-05-26T03:52:49.279Z,1940
2019-05-26T03:54:03.398Z,1996
2019-05-26T03:55:17.680Z,2056
2019-05-26T03:56:31.805Z,2120
2019-05-26T03:57:46.017Z,2184
2019-05-26T03:59:00.205Z,2252
2019-05-26T04:00:14.484Z,2332
2019-05-26T04:01:28.701Z,2420
2019-05-26T04:02:42.833Z,2504
2019-05-26T04:03:57.110Z,2596
2019-05-26T04:05:11.221Z,2684
2019-05-26T04:06:25.426Z,2776
2019-05-26T04:07:39.623Z,2852
2019-05-26T04:08:53.868Z,2940
2019-05-26T04:10:08.026Z,3004
2019-05-26T04:11:22.347Z,3040
2019-05-26T04:12:36.422Z,3080
2019-05-26T04:13:50.610Z,3132
2019-05-26T04:15:04.888Z,3188
2019-05-26T04:16:18.989Z,3264
2019-05-26T04:17:33.182Z,3356
2019-05-26T04:18:47.384Z,3456
2019-05-26T04:20:01.721Z,3560
2019-05-26T04:21:15.872Z,3672
2019-05-26T04:22:30.047Z,3768
2019-05-26T04:23:44.166Z,3856
2019-05-26T04:24:58.558Z,3948
2019-05-26T04:27:26.744Z,4168
2019-05-26T04:28:40.986Z,4296
2019-05-26T04:29:55.141Z,4416
2019-05-26T04:31:09.315Z,4572
2019-05-26T04:32:23.514Z,4712
2019-05-26T04:33:37.708Z,4872
2019-05-26T04:34:51.988Z,5040
2019-05-26T04:36:06.175Z,5200
2019-05-26T04:37:20.385Z,5356
2019-05-26T04:39:48.764Z,5632
2019-05-26T04:41:02.843Z,5776
2019-05-26T04:42:17.023Z,5928
2019-05-26T04:43:31.206Z,6128
2019-05-26T04:44:45.379Z,6332
2019-05-26T04:45:59.566Z,6536
2019-05-26T04:47:13.759Z,6736
2019-05-26T04:48:27.997Z,6988
2019-05-26T04:49:42.226Z,7192
2019-05-26T04:50:56.362Z,7452
2019-05-26T04:52:10.639Z,7664
2019-05-26T04:53:24.750Z,7940
2019-05-26T04:54:38.842Z,8224
2019-05-26T04:55:53.011Z,8572
2019-05-26T04:57:07.309Z,8788
2019-05-26T04:58:21.375Z,9220
2019-05-26T04:59:35.527Z,9508
2019-05-26T05:00:49.809Z,9728
2019-05-26T05:02:03.902Z,10068
2019-05-26T05:03:18.059Z,10524
2019-05-26T05:04:32.247Z,10976
2019-05-26T05:05:46.411Z,11216
2019-05-26T05:07:05.579Z,11216
2019-05-26T05:08:14.783Z,11580
2019-05-26T05:09:28.947Z,11844
2019-05-26T05:10:46.581Z,12040
2019-05-26T05:11:57.280Z,12232
2019-05-26T05:13:11.524Z,12480
2019-05-26T05:14:25.669Z,12788
2019-05-26T05:15:39.796Z,13116
2019-05-26T05:16:54.067Z,13624
2019-05-26T05:18:08.226Z,14288
2019-05-26T05:19:22.418Z,14664
2019-05-26T05:20:36.627Z,14804
2019-05-26T05:21:50.713Z,14640
2019-05-26T05:23:04.794Z,14972
2019-05-26T05:24:18.936Z,15112
2019-05-26T05:25:36.956Z,15068
2019-05-26T05:26:47.344Z,15292
2019-05-26T05:28:01.530Z,15536
2019-05-26T05:29:15.585Z,15612
2019-05-26T05:30:29.738Z,15804
2019-05-26T05:31:43.907Z,16172
2019-05-26T05:32:58.156Z,16544
2019-05-26T05:34:12.210Z,16672
2019-05-26T05:35:26.430Z,16104
2019-05-26T05:36:40.505Z,15876
2019-05-26T05:37:54.660Z,15748
2019-05-26T05:39:08.864Z,15412
2019-05-26T05:40:22.933Z,15512
2019-05-26T05:41:37.194Z,16084
2019-05-26T05:42:51.302Z,16320
2019-05-26T05:44:05.461Z,15776
2019-05-26T05:45:19.510Z,15076
2019-05-26T05:47:47.790Z,14516
2019-05-26T05:49:01.955Z,14492
2019-05-26T05:50:16.071Z,14532
2019-05-26T05:51:30.387Z,14656
2019-05-26T05:52:44.452Z,14852
2019-05-26T05:53:58.517Z,14992
2019-05-26T05:55:12.655Z,15308
2019-05-26T05:56:26.790Z,15608
2019-05-26T05:57:40.942Z,15912
2019-05-26T05:58:55.086Z,15984
2019-05-26T06:00:09.244Z,16172
2019-05-26T06:01:23.397Z,16476
2019-05-26T06:02:37.552Z,17120
2019-05-26T06:03:51.713Z,17600
2019-05-26T06:05:05.904Z,18016
2019-05-26T06:06:20.035Z,18176
2019-05-26T06:07:34.090Z,18496
2019-05-26T06:08:48.232Z,18880
2019-05-26T06:10:02.364Z,18976
2019-05-26T06:11:16.515Z,19168
2019-05-26T06:12:30.654Z,19232
2019-05-26T06:13:44.814Z,19072
2019-05-26T06:14:58.972Z,18912
2019-05-26T06:16:13.068Z,18752
2019-05-26T06:18:41.397Z,18496
2019-05-26T06:19:55.520Z,18336
2019-05-26T06:21:09.753Z,18176
2019-05-26T06:22:23.790Z,18112
2019-05-26T06:24:52.409Z,18208
2019-05-26T06:26:06.408Z,18368
2019-05-26T06:27:20.386Z,18656
2019-05-26T06:28:34.515Z,18912
2019-05-26T06:31:02.811Z,19456
2019-05-26T06:32:16.945Z,19872
2019-05-26T06:33:31.100Z,20352
2019-05-26T06:34:45.231Z,20736
2019-05-26T06:35:59.352Z,21024
2019-05-26T06:37:13.490Z,21248
2019-05-26T06:38:27.972Z,21440
2019-05-26T06:39:41.764Z,21632
2019-05-26T06:40:55.987Z,21728
2019-05-26T06:42:10.070Z,21792
2019-05-26T06:43:24.218Z,21984
2019-05-26T06:44:38.346Z,21888
2019-05-26T06:45:52.385Z,21952
2019-05-26T06:47:06.557Z,22112
2019-05-26T06:48:20.657Z,22304
2019-05-26T06:49:35.622Z,22400
2019-05-26T06:50:49.099Z,22624
2019-05-26T06:52:03.052Z,22688
2019-05-26T06:53:17.292Z,23008
2019-05-26T06:55:45.390Z,22784
2019-05-26T06:56:59.492Z,22496
2019-05-26T06:58:13.608Z,22112
2019-05-26T06:59:27.736Z,21536
2019-05-26T07:04:24.183Z,17068
2019-05-26T07:05:38.386Z,16412
2019-05-26T07:08:06.680Z,15444
2019-05-26T07:09:20.667Z,16828
2019-05-26T07:10:35.767Z,16936
2019-05-26T07:11:49.005Z,16552
2019-05-26T07:13:03.042Z,14744
2019-05-26T07:14:22.222Z,15432
2019-05-26T07:15:31.392Z,16676
2019-05-26T07:16:45.435Z,20000
2019-05-26T07:17:59.531Z,23168
2019-05-26T07:19:13.657Z,25664
2019-05-26T07:20:27.773Z,23200
2019-05-26T07:21:41.970Z,26720
2019-05-26T07:22:56.098Z,32128
2019-05-26T07:24:10.336Z,33280
2019-05-26T07:25:24.242Z,33600
2019-05-26T07:27:52.448Z,29440
2019-05-26T07:29:06.600Z,31712
2019-05-26T07:30:20.678Z,32864
2019-05-26T07:31:34.795Z,32352
2019-05-26T07:32:48.845Z,35232
2019-05-26T07:34:03.136Z,35264
2019-05-26T07:35:17.063Z,34656
2019-05-26T07:36:31.150Z,36480
2019-05-26T07:37:45.264Z,36768
2019-05-26T07:38:59.529Z,35392
2019-05-26T07:40:13.463Z,34400
2019-05-26T07:41:27.656Z,32448
2019-05-26T07:42:41.652Z,29440
2019-05-26T07:43:55.753Z,26336
2019-05-26T07:45:09.870Z,25056
2019-05-26T07:46:23.959Z,25280
2019-05-26T07:47:38.067Z,24416
2019-05-26T07:48:52.184Z,22688
2019-05-26T07:50:06.278Z,21952
2019-05-26T07:51:20.506Z,22304
2019-05-26T07:52:34.532Z,22528
2019-05-26T07:53:48.624Z,21888
2019-05-26T07:55:06.891Z,21088
2019-05-26T07:56:16.844Z,20384
2019-05-26T07:57:30.966Z,19904
2019-05-26T07:58:45.274Z,20160
2019-05-26T07:59:59.167Z,20896
2019-05-26T08:01:13.270Z,21440
2019-05-26T08:02:27.397Z,21664
2019-05-26T08:03:41.504Z,21792
2019-05-26T08:04:55.708Z,21952
2019-05-26T08:06:09.835Z,21824
2019-05-26T08:07:23.850Z,21344
2019-05-26T08:08:38.096Z,20576
2019-05-26T08:09:52.134Z,19840
2019-05-26T08:11:06.221Z,19392
2019-05-26T08:12:20.335Z,19584
2019-05-26T08:13:34.454Z,20096
2019-05-26T08:14:48.639Z,20576
2019-05-26T08:16:02.678Z,21216
2019-05-26T08:18:31.016Z,21760
2019-05-26T08:19:45.057Z,21632
2019-05-26T08:20:59.179Z,21952
2019-05-26T08:22:13.287Z,22432
2019-05-26T08:23:27.418Z,22304
2019-05-26T08:24:41.611Z,22368
2019-05-26T08:25:55.748Z,23104
2019-05-26T08:27:09.724Z,24032
2019-05-26T08:28:23.838Z,23872
2019-05-26T08:29:37.976Z,22528
2019-05-26T08:30:52.264Z,21600
2019-05-26T08:32:06.206Z,22080
2019-05-26T08:33:20.308Z,23616
2019-05-26T08:34:34.406Z,24640
2019-05-26T08:35:48.493Z,24320
2019-05-26T08:37:02.599Z,23840
2019-05-26T08:38:16.814Z,23680
2019-05-26T08:39:30.814Z,23552
2019-05-26T08:40:44.943Z,23360
2019-05-26T08:41:59.057Z,22624
2019-05-26T08:43:13.141Z,21248
2019-05-26T08:44:27.246Z,19840
2019-05-26T08:45:41.451Z,19840
2019-05-26T08:46:55.490Z,21664
2019-05-26T08:48:09.598Z,23296
2019-05-26T08:49:23.708Z,22976
2019-05-26T08:50:37.812Z,20896
2019-05-26T08:51:51.918Z,18144
2019-05-26T08:53:06.112Z,15816
2019-05-26T08:54:20.199Z,14640
2019-05-26T08:55:34.340Z,14556
2019-05-26T08:56:48.462Z,15408
2019-05-26T08:58:02.500Z,16764
2019-05-26T08:59:16.714Z,18720
2019-05-26T09:00:30.756Z,20320
2019-05-26T09:01:44.869Z,21728
2019-05-26T09:02:59.036Z,22080
2019-05-26T09:04:13.073Z,21856
2019-05-26T09:05:27.184Z,22336
2019-05-26T09:06:41.378Z,22816
2019-05-26T09:07:55.643Z,22464
2019-05-26T09:09:09.512Z,21536
2019-05-26T09:10:23.618Z,21056
2019-05-26T09:11:37.807Z,21888
2019-05-26T09:12:51.927Z,23808
2019-05-26T09:14:06.007Z,25664
2019-05-26T09:15:20.064Z,28480
2019-05-26T09:16:34.289Z,31872
2019-05-26T09:17:48.286Z,34976
2019-05-26T09:19:02.424Z,36960
2019-05-26T09:20:16.559Z,38208
2019-05-26T09:21:30.572Z,37952
2019-05-26T09:22:44.683Z,37952
2019-05-26T09:23:58.867Z,38368
2019-05-26T09:25:12.893Z,39168
2019-05-26T09:26:26.971Z,40544
2019-05-26T09:27:41.192Z,42496
2019-05-26T09:28:55.511Z,45248
2019-05-26T09:30:09.242Z,47904
2019-05-26T09:31:23.340Z,47296
2019-05-26T09:32:37.406Z,46048
2019-05-26T09:33:51.577Z,44800
2019-05-26T09:35:05.564Z,44096
2019-05-26T09:36:19.728Z,43968
2019-05-26T09:37:33.711Z,44640
2019-05-26T09:38:47.804Z,45248
2019-05-26T09:40:02.234Z,45472
2019-05-26T09:41:15.976Z,44448
2019-05-26T09:42:30.018Z,42336
2019-05-26T09:43:44.099Z,41440
2019-05-26T09:44:58.163Z,42464
2019-05-26T09:47:26.385Z,45856
2019-05-26T09:48:40.368Z,45184
2019-05-26T09:49:54.564Z,46688
2019-05-26T09:51:08.522Z,45120
2019-05-26T09:52:22.708Z,54656
2019-05-26T09:53:36.767Z,39968
2019-05-26T09:54:50.753Z,38080
2019-05-26T09:56:04.932Z,37408
2019-05-26T09:57:19.012Z,38432
2019-05-26T09:58:33.066Z,40576
2019-05-26T09:59:47.047Z,43936
2019-05-26T10:01:01.143Z,44832
2019-05-26T10:02:15.305Z,42720
2019-05-26T10:03:29.299Z,41632
2019-05-26T10:04:43.397Z,41184
2019-05-26T10:05:57.537Z,42592
2019-05-26T10:07:11.562Z,47808
2019-05-26T10:08:25.671Z,48032
2019-05-26T10:09:39.690Z,37312
2019-05-26T10:10:53.773Z,36512
2019-05-26T10:12:07.857Z,35552
2019-05-26T10:13:21.947Z,35488
2019-05-26T10:14:36.126Z,35744
2019-05-26T10:15:50.177Z,35968
2019-05-26T10:17:04.153Z,37440
2019-05-26T10:18:18.236Z,40832
2019-05-26T10:19:32.399Z,44544
2019-05-26T10:20:46.403Z,44256
2019-05-26T10:22:00.572Z,43712
2019-05-26T10:25:42.798Z,45536
2019-05-26T10:26:56.820Z,45600
2019-05-26T10:28:10.963Z,44320
2019-05-26T10:29:24.953Z,43168
2019-05-26T10:30:39.027Z,43040
2019-05-26T10:31:53.177Z,43296
2019-05-26T10:33:07.224Z,41696
2019-05-26T10:34:21.347Z,40480
2019-05-26T10:35:35.358Z,40128
2019-05-26T10:36:50.728Z,40448
2019-05-26T10:38:05.034Z,40928
2019-05-26T10:39:17.693Z,43808
2019-05-26T10:40:31.707Z,47040
2019-05-26T10:41:45.755Z,49472
2019-05-26T10:42:59.927Z,49984
2019-05-26T10:44:13.989Z,50848
2019-05-26T10:45:27.978Z,44864
2019-05-26T10:46:42.142Z,50272
2019-05-26T10:47:56.206Z,49856
2019-05-26T10:49:10.230Z,51424
2019-05-26T10:50:24.374Z,55392
2019-05-26T10:51:38.317Z,58944
2019-05-26T10:52:52.450Z,60416
2019-05-26T10:54:06.473Z,61728
2019-05-26T10:55:20.612Z,60384
2019-05-26T10:56:34.687Z,58176
2019-05-26T10:57:48.637Z,56224
2019-05-26T10:59:02.695Z,55008
2019-05-26T11:00:16.755Z,54752
2019-05-26T11:01:30.814Z,56032
2019-05-26T11:02:44.896Z,58016
2019-05-26T11:03:58.962Z,57632
2019-05-26T11:05:13.009Z,47232
2019-05-26T11:06:27.166Z,50784
2019-05-26T11:08:55.204Z,56288
2019-05-26T11:10:09.354Z,57184
2019-05-26T11:11:23.410Z,57696
2019-05-26T11:12:37.483Z,58944
2019-05-26T11:13:51.448Z,56896
2019-05-26T11:15:05.509Z,54688
2019-05-26T11:16:19.645Z,55456
2019-05-26T11:17:33.606Z,53920
2019-05-26T11:18:47.744Z,45824
2019-05-26T11:20:05.825Z,48768
2019-05-26T11:21:15.768Z,45216
2019-05-26T11:22:29.929Z,41152
2019-05-26T11:23:43.982Z,41152
2019-05-26T11:24:59.909Z,43584
2019-05-26T11:26:12.029Z,47008
2019-05-26T11:27:26.101Z,51072
2019-05-26T11:28:40.169Z,54496
2019-05-26T11:29:54.251Z,57152
2019-05-26T11:31:08.387Z,59392
2019-05-26T11:32:22.433Z,61536
2019-05-26T11:33:36.499Z,60288
2019-05-26T11:34:50.649Z,61952
2019-05-26T11:37:18.646Z,58720
2019-05-26T11:39:46.741Z,61184
2019-05-26T11:41:05.575Z,63904
2019-05-26T11:42:14.874Z,73408
2019-05-26T11:43:28.966Z,83776
2019-05-26T11:44:43.032Z,55584
2019-05-26T11:45:56.989Z,49344
2019-05-26T11:47:11.065Z,44320
2019-05-26T11:48:25.179Z,40672
2019-05-26T11:49:39.133Z,39936
2019-05-26T11:50:53.265Z,40672
2019-05-26T11:52:07.484Z,45184
2019-05-26T11:53:21.303Z,47744
2019-05-26T11:54:35.449Z,48928
2019-05-26T11:55:49.447Z,51296
2019-05-26T11:57:03.490Z,58272
2019-05-26T11:58:17.601Z,50176
2019-05-26T12:00:45.727Z,51872
2019-05-26T12:01:59.817Z,59712
2019-05-26T12:03:13.881Z,67296
2019-05-26T12:04:27.942Z,65536
2019-05-26T12:05:41.913Z,103328
2019-05-26T12:06:55.971Z,73664
2019-05-26T12:08:10.015Z,57472
2019-05-26T12:09:24.141Z,61472
2019-05-26T12:10:38.194Z,98112
2019-05-26T12:11:52.194Z,92160
2019-05-26T12:13:06.282Z,104224
2019-05-26T12:14:20.239Z,69472
2019-05-26T12:15:34.267Z,79776
2019-05-26T12:16:48.325Z,77280
2019-05-26T12:18:02.345Z,77152
2019-05-26T12:19:16.373Z,75584
2019-05-26T12:20:30.499Z,58912
2019-05-26T12:21:44.444Z,57120
2019-05-26T12:22:58.571Z,48896
2019-05-26T12:24:12.545Z,45824
2019-05-26T12:25:26.618Z,45792
2019-05-26T12:26:40.762Z,46240
2019-05-26T12:27:54.662Z,46560
2019-05-26T12:29:08.702Z,56352
2019-05-26T12:30:22.735Z,41888
2019-05-26T12:31:36.799Z,35200
2019-05-26T12:32:50.833Z,37056
2019-05-26T12:34:04.892Z,41568
2019-05-26T12:35:18.962Z,45472
2019-05-26T12:36:33.074Z,46624
2019-05-26T12:37:47.065Z,46880
2019-05-26T12:39:01.135Z,128608
2019-05-26T12:40:15.279Z,42848
2019-05-26T12:41:29.261Z,35648
2019-05-26T12:42:43.306Z,38816
2019-05-26T12:43:57.382Z,40096
2019-05-26T12:45:11.424Z,37408
2019-05-26T12:46:25.491Z,35936
2019-05-26T12:47:39.708Z,35168
2019-05-26T12:48:53.645Z,37600
2019-05-26T12:50:07.704Z,43616
2019-05-26T12:51:21.866Z,49376
2019-05-26T12:52:35.952Z,52576
2019-05-26T12:53:49.926Z,47968
2019-05-26T12:56:18.114Z,61984
2019-05-26T12:57:32.112Z,56256
2019-05-26T12:58:46.252Z,54528
2019-05-26T13:00:00.320Z,47808
2019-05-26T13:01:14.459Z,52448
2019-05-26T13:02:28.526Z,56992
2019-05-26T13:03:42.450Z,60480
2019-05-26T13:06:10.564Z,58048
2019-05-26T13:07:24.632Z,63392
2019-05-26T13:08:38.779Z,56544
2019-05-26T13:09:52.772Z,84384
2019-05-26T13:11:07.187Z,60896
2019-05-26T13:12:20.833Z,123584
2019-05-26T13:13:34.881Z,114400
2019-05-26T13:14:48.995Z,58944
2019-05-26T13:16:03.164Z,64320
2019-05-26T13:17:16.986Z,59744
2019-05-26T13:18:31.111Z,49760
2019-05-26T13:19:45.098Z,49312
2019-05-26T13:20:59.115Z,50048
2019-05-26T13:22:13.160Z,52320
2019-05-26T13:23:27.209Z,49312
2019-05-26T13:24:41.315Z,50560
2019-05-26T13:25:55.321Z,53952
2019-05-26T13:27:09.402Z,56096
2019-05-26T13:28:23.446Z,51872
2019-05-26T13:29:37.525Z,42048
2019-05-26T13:30:51.570Z,37440
2019-05-26T13:32:05.649Z,36416
2019-05-26T13:33:19.705Z,43904
2019-05-26T13:34:33.796Z,48576
2019-05-26T13:35:47.945Z,57792
2019-05-26T13:37:01.963Z,63872
2019-05-26T13:38:15.943Z,55744
2019-05-26T13:39:30.007Z,52704
2019-05-26T13:40:44.141Z,49440
2019-05-26T13:41:58.192Z,45408
2019-05-26T13:44:26.268Z,47200
2019-05-26T13:45:40.445Z,46976
2019-05-26T13:46:54.371Z,44960
2019-05-26T13:48:08.441Z,44288
2019-05-26T13:49:22.494Z,46240
2019-05-26T13:50:36.585Z,52992
2019-05-26T13:51:50.621Z,56128
2019-05-26T13:53:04.764Z,47904
2019-05-26T13:55:32.812Z,38752
2019-05-26T13:56:46.873Z,33856
2019-05-26T13:58:00.990Z,28800
2019-05-26T13:59:15.096Z,23264
2019-05-26T14:00:29.091Z,17184
2019-05-26T14:01:43.145Z,12892
2019-05-26T14:02:57.318Z,11228
2019-05-26T14:04:11.441Z,9932
2019-05-26T14:05:25.468Z,9024
2019-05-26T14:06:39.591Z,8200
2019-05-26T14:07:53.657Z,7336
2019-05-26T14:09:07.663Z,7072
2019-05-26T14:10:21.772Z,7316
2019-05-26T14:11:35.972Z,7728
2019-05-26T14:12:50.016Z,8352
2019-05-26T14:14:05.502Z,8340
2019-05-26T14:15:18.426Z,8252
2019-05-26T14:16:35.410Z,8784
2019-05-26T14:17:49.701Z,10544
2019-05-26T14:20:20.406Z,16504
2019-05-26T14:21:34.194Z,18240
2019-05-26T14:22:42.886Z,17536
2019-05-26T14:23:57.055Z,15008
2019-05-26T14:25:11.109Z,12692
2019-05-26T14:26:25.341Z,10688
2019-05-26T14:27:39.352Z,8972
2019-05-26T14:28:53.469Z,7776
2019-05-26T14:30:07.676Z,7596
2019-05-26T14:31:21.762Z,8776
2019-05-26T14:32:35.799Z,12044
2019-05-26T14:33:49.896Z,15756
2019-05-26T14:35:04.090Z,19136
2019-05-26T14:36:18.138Z,20640
2019-05-26T14:37:32.234Z,21664
2019-05-26T14:38:46.341Z,22304
2019-05-26T14:40:00.457Z,22144
2019-05-26T14:41:14.793Z,22048
2019-05-26T14:42:28.684Z,22112
2019-05-26T14:44:56.896Z,22144
2019-05-26T14:46:10.992Z,22176
2019-05-26T14:47:25.573Z,22112
2019-05-26T14:48:39.273Z,22464
2019-05-26T14:49:53.322Z,23168
2019-05-26T14:51:07.536Z,23808
2019-05-26T14:52:21.629Z,24256
2019-05-26T14:53:35.629Z,24736
2019-05-26T14:54:49.717Z,24992
2019-05-26T14:56:03.907Z,25248
2019-05-26T14:57:17.939Z,26336
2019-05-26T14:58:32.102Z,27104
2019-05-26T14:59:46.213Z,27904
2019-05-26T15:01:00.241Z,28128
2019-05-26T15:02:14.337Z,27872
2019-05-26T15:03:28.447Z,27744
2019-05-26T15:04:42.644Z,27488
2019-05-26T15:05:56.736Z,26848
2019-05-26T15:07:10.736Z,26432
2019-05-26T15:08:24.910Z,26144
2019-05-26T15:09:38.924Z,25632
2019-05-26T15:10:53.108Z,25376
2019-05-26T15:12:07.217Z,25312
2019-05-26T15:13:21.227Z,25568
2019-05-26T15:14:35.381Z,25632
2019-05-26T15:15:49.409Z,25376
2019-05-26T15:17:03.502Z,25152
2019-05-26T15:18:17.593Z,24768
2019-05-26T15:19:31.763Z,24448
2019-05-26T15:20:45.850Z,24896
2019-05-26T15:21:59.870Z,25952
2019-05-26T15:23:13.963Z,26752
2019-05-26T15:24:28.251Z,27360
2019-05-26T15:25:42.229Z,28928
2019-05-26T15:26:56.251Z,30752
2019-05-26T15:28:10.665Z,31040
2019-05-26T15:29:24.424Z,30016
2019-05-26T15:30:38.523Z,29472
2019-05-26T15:31:52.726Z,30400
2019-05-26T15:34:20.828Z,51520
2019-05-26T15:35:35.031Z,45696
2019-05-26T15:36:49.019Z,39392
2019-05-26T15:38:03.149Z,39456
2019-05-26T15:39:17.198Z,42944
2019-05-26T15:40:31.331Z,44992
2019-05-26T15:41:45.456Z,54144
2019-05-26T15:42:59.520Z,61984
2019-05-26T15:44:13.627Z,52256
2019-05-26T15:45:27.640Z,61600
2019-05-26T15:46:41.802Z,56288
2019-05-26T15:47:55.811Z,60160
2019-05-26T15:49:09.910Z,51808
2019-05-26T15:50:23.950Z,57376
2019-05-26T15:51:38.035Z,41664
2019-05-26T15:52:52.197Z,32224
2019-05-26T15:54:06.371Z,29152
2019-05-26T15:55:20.241Z,25472
2019-05-26T15:56:34.405Z,23744
2019-05-26T15:57:48.412Z,22432
2019-05-26T15:59:02.504Z,20096
2019-05-26T16:00:16.659Z,18144
2019-05-26T16:01:30.727Z,17056
2019-05-26T16:02:45.068Z,16232
2019-05-26T16:03:58.914Z,15700
2019-05-26T16:05:12.993Z,15116
2019-05-26T16:06:27.109Z,14488
2019-05-26T16:07:41.110Z,13640
2019-05-26T16:08:55.186Z,12740
2019-05-26T16:10:09.369Z,12220
2019-05-26T16:12:37.475Z,11476
2019-05-26T16:13:51.581Z,11028
2019-05-26T16:15:05.751Z,10604
2019-05-26T16:16:19.800Z,10368
2019-05-26T16:17:33.892Z,10392
2019-05-26T16:18:47.990Z,10576
2019-05-26T16:20:02.268Z,10560
2019-05-26T16:21:16.315Z,10296
2019-05-26T16:22:30.311Z,10004
2019-05-26T16:23:44.417Z,9792
2019-05-26T16:24:59.075Z,9508
2019-05-26T16:26:12.763Z,9388
2019-05-26T16:27:26.845Z,9456
2019-05-26T16:28:40.875Z,9596
2019-05-26T16:29:54.998Z,9588
2019-05-26T16:31:09.100Z,9312
2019-05-26T16:32:23.219Z,8988
2019-05-26T16:33:37.339Z,8492
2019-05-26T16:34:51.459Z,7868
2019-05-26T16:36:05.755Z,7428
2019-05-26T16:37:19.676Z,7140
2019-05-26T16:38:33.883Z,6808
2019-05-26T16:39:47.909Z,6400
2019-05-26T16:41:02.999Z,6064
2019-05-26T16:42:16.155Z,5884
2019-05-26T16:43:30.263Z,5880
2019-05-26T16:44:44.412Z,6072
2019-05-26T16:45:58.642Z,6404
2019-05-26T16:47:12.626Z,6784
2019-05-26T16:48:26.772Z,7236
2019-05-26T16:49:40.888Z,7764
2019-05-26T16:50:55.069Z,8340
2019-05-26T16:52:09.113Z,8844
2019-05-26T16:53:23.230Z,9232
2019-05-26T16:54:37.460Z,9688
2019-05-26T16:55:51.794Z,10264
2019-05-26T16:57:05.677Z,10796
2019-05-26T16:58:19.792Z,11172
2019-05-26T17:00:47.961Z,11724
2019-05-26T17:02:02.187Z,12072
2019-05-26T17:03:16.234Z,12632
2019-05-26T17:04:30.351Z,13500
2019-05-26T17:05:44.471Z,14468
2019-05-26T17:06:58.802Z,15340
2019-05-26T17:08:12.754Z,15856
2019-05-26T17:09:26.838Z,16120
2019-05-26T17:10:40.982Z,16288
2019-05-26T17:11:55.087Z,16240
2019-05-26T17:13:09.231Z,16008
2019-05-26T17:14:23.468Z,16052
2019-05-26T17:15:37.469Z,16416
2019-05-26T17:16:51.587Z,16284
2019-05-26T17:18:05.705Z,16068
2019-05-26T17:19:19.829Z,16036
2019-05-26T17:20:33.946Z,16020